Newton, KS

10:59 PM CDT on August 28, 2014 (GMT -0500)
Newton City County | Change Station
CLOSE
Current Station
Airport
Location: Newton,
Elevation: 1532 ft
Nearby Weather Stations

Elev 1532 ft 38.06 °N, 97.27 °W | Updated 4 minutes ago

Mostly Cloudy
Mostly Cloudy
72 °F
Feels Like 72 °F
N
20
Wind Variable Wind from South

Today
High -- | Low -- °F
--% Chance of Precip.
Yesterday
High -- | Low -- °F
Precip. -- in
6:55 AM 8:04 PM
Waxing Crescent, 11% visible
Pressure 29.89 in
Visibility 10.0 miles
Clouds Few 3900 ft
Scattered Clouds 5000 ft
Mostly Cloudy 12000 ft
Dew Point 55 °F
Humidity 57%
Rainfall 0.35 in
Snow Depth Not available.
UV 0 out of 12
Pollen 10.70 out of 12
Air Quality Not available.
Flu Activity Not available.
METAR KEWK 290355Z AUTO 17017KT 10SM FEW039 SCT050 BKN120 22/13 A2989 RMK AO1

More Conditions Fewer Conditions

Pressure 29.89 in
Visibility 10.0 miles
Clouds Few 3900 ft
Scattered Clouds 5000 ft
Mostly Cloudy 12000 ft
Dew Point 55 °F
Humidity 57%
Rainfall 0.35 in
Snow Depth Not available.
UV 0 out of 12
Pollen 10.70 out of 12
Air Quality Not available.
Flu Activity Not available.
METAR KEWK 290355Z AUTO 17017KT 10SM FEW039 SCT050 BKN120 22/13 A2989 RMK AO1

More Conditions Fewer Conditions

10-Day Weather Forecast

Almanac

Astronomy

Aug. 28, 2014 Rise Set
Actual Time 6:55 AM CDT 8:04 PM CDT
Civil Twilight 6:28 AM CDT 8:31 PM CDT
Nautical Twilight 5:56 AM CDT 9:04 PM CDT
Astronomical Twilight 5:22 AM CDT 9:37 PM CDT
Moon 9:45 AM CDT (8/28) 9:33 PM CDT (8/28)
Length of Visible Light 14h 03m
Length of Day
13h 08m
Tomorrow will be 2m 18s shorter.
Waxing Crescent, 11% of the Moon is Illuminated
Today
Waxing Crescent
Sep 2
First Quarter
Sep 8
Full
Sep 15
Last Quarter
Sep 24
New

Today's Extremes

State Highs State Lows

Community

WunderPhotos

Upload Photos

1,748,182 photos uploaded!

Nearby

Snow Depth

Station Depth Elevation
No new snow has been reported.

Earthquake Activity

City Distance Mag. Time & Date
Stillwater, Oklahoma 135 miles 3.1 10:44 AM CDT
2014-08-27
Anthony, Kansas 74 miles 2.8 10:11 AM CDT
2014-08-27
Perry, Oklahoma 127 miles 2.5 8:07 AM CDT
2014-08-26
Minimum magnitude displayed is 2.5.

Coastal Water Temperatures

Place Temperature
No Stations Reporting

Nearby Weather Stations